Time;durP1;ratioP1;P1;durP2;ratioP2;P2;SDS_P1;SDS_P2;PMS_P1;PMS_P2;Temp;Humidity;BMP_temperature;BMP_pressure;BME280_temperature;BME280_humidity;BME280_pressure;Samples;Min_cycle;Max_cycle;Signal;HPM_P1;HPM_P2
2023/08/11 00:00:36;;;;;;;9.25;6.30;;;;;;;16.15;91.73;101918.16;5009590;28;20041;-76
2023/08/11 00:03:02;;;;;;;8.55;5.32;;;;;;;16.12;91.48;101916.53;5007220;28;20497;-75
2023/08/11 00:05:28;;;;;;;8.15;5.60;;;;;;;16.10;91.06;101914.91;5007440;28;20068;-75
2023/08/11 00:07:54;;;;;;;8.65;6.03;;;;;;;16.08;91.47;101917.75;5008337;28;20445;-75
2023/08/11 00:10:20;;;;;;;8.00;5.82;;;;;;;16.08;91.72;101923.25;5024321;28;20052;-73
2023/08/11 00:12:46;;;;;;;6.82;5.90;;;;;;;16.06;91.64;101915.16;5042721;28;20029;-75
2023/08/11 00:15:12;;;;;;;9.73;7.15;;;;;;;16.03;93.48;101914.50;5019688;28;20045;-75
2023/08/11 00:17:41;;;;;;;8.50;5.60;;;;;;;16.00;92.35;101909.28;5007572;28;20395;-75
2023/08/11 00:20:08;;;;;;;7.57;6.07;;;;;;;16.00;91.93;101914.78;5008669;28;20463;-75
2023/08/11 00:22:34;;;;;;;9.00;6.22;;;;;;;15.94;92.95;101910.59;5007590;28;20092;-75
2023/08/11 00:24:59;;;;;;;10.35;6.05;;;;;;;15.93;93.58;101911.59;5007817;28;20057;-72
2023/08/11 00:27:25;;;;;;;8.38;6.05;;;;;;;15.90;92.87;101911.88;5007662;28;20400;-74
2023/08/11 00:29:51;;;;;;;7.82;6.43;;;;;;;15.87;92.96;101908.47;5006729;28;20036;-75
2023/08/11 00:32:16;;;;;;;9.43;5.65;;;;;;;15.84;94.21;101909.59;5007873;28;20125;-75
2023/08/11 00:34:42;;;;;;;7.18;4.97;;;;;;;15.82;93.13;101915.19;5006781;28;20022;-75
2023/08/11 00:37:07;;;;;;;6.55;5.20;;;;;;;15.80;93.15;101913.56;5007541;28;20589;-75
2023/08/11 00:39:33;;;;;;;9.98;5.25;;;;;;;15.77;92.69;101905.59;5007665;28;20441;-75
2023/08/11 00:41:59;;;;;;;7.25;5.47;;;;;;;15.77;92.81;101911.06;5007701;28;20354;-74
2023/08/11 00:44:24;;;;;;;8.10;5.38;;;;;;;15.76;92.94;101909.28;5006293;28;20036;-75
2023/08/11 00:46:50;;;;;;;7.57;5.40;;;;;;;15.74;92.68;101903.94;5010048;28;20037;-74
2023/08/11 00:49:15;;;;;;;7.55;6.10;;;;;;;15.71;93.19;101898.66;5007643;28;20072;-75
2023/08/11 00:51:42;;;;;;;10.77;5.70;;;;;;;15.69;94.10;101899.81;5007979;28;20042;-75
2023/08/11 00:54:10;;;;;;;6.68;5.78;;;;;;;15.68;93.51;101895.31;5031792;28;20087;-75
2023/08/11 00:56:36;;;;;;;7.43;5.40;;;;;;;15.63;92.98;101887.41;5026148;28;20033;-75
2023/08/11 00:59:03;;;;;;;9.88;5.75;;;;;;;15.59;93.73;101880.41;5024990;28;20049;-75
2023/08/11 01:01:28;;;;;;;6.00;5.32;;;;;;;15.59;92.85;101883.16;5011234;28;20558;-75
2023/08/11 01:03:53;;;;;;;11.38;5.03;;;;;;;15.56;92.86;101886.13;4990029;28;20041;-75
2023/08/11 01:06:38;;;;;;;7.07;5.43;;;;;;;15.56;92.95;101880.63;5006254;28;20095;-75
2023/08/11 01:09:17;;;;;;;9.32;5.85;;;;;;;15.54;93.18;101882.63;5025249;28;20116;-76
2023/08/11 01:12:01;;;;;;;7.03;5.40;;;;;;;15.51;92.72;101882.84;5024586;28;20486;-74
2023/08/11 01:14:35;;;;;;;8.43;5.55;;;;;;;15.48;92.59;101888.56;5023967;28;20489;-75
2023/08/11 01:17:04;;;;;;;8.55;5.57;;;;;;;15.47;93.25;101878.59;5026240;28;20041;-72
2023/08/11 01:19:35;;;;;;;8.30;6.10;;;;;;;15.44;93.44;101874.22;5025725;28;20029;-75
2023/08/11 01:22:07;;;;;;;8.23;6.35;;;;;;;15.42;93.55;101872.59;5027362;28;20116;-76
2023/08/11 01:24:33;;;;;;;8.70;6.55;;;;;;;15.36;94.61;101862.97;5025004;28;20041;-75
2023/08/11 01:26:58;;;;;;;10.27;7.03;;;;;;;15.34;94.74;101866.81;5026782;28;20107;-75
2023/08/11 01:29:25;;;;;;;11.55;5.82;;;;;;;15.33;93.83;101868.69;5023491;28;20378;-74
2023/08/11 01:31:50;;;;;;;7.85;5.63;;;;;;;15.30;94.11;101871.66;5007701;28;20038;-75
2023/08/11 01:34:16;;;;;;;8.60;6.20;;;;;;;15.26;93.80;101862.78;5005468;28;20049;-73
2023/08/11 01:36:42;;;;;;;9.43;7.07;;;;;;;15.27;94.21;101864.53;5006995;28;20045;-75
2023/08/11 01:39:09;;;;;;;7.93;7.05;;;;;;;15.26;94.71;101870.16;5006288;28;20034;-75
2023/08/11 01:41:36;;;;;;;9.82;7.57;;;;;;;15.26;94.63;101864.66;4995797;28;20033;-75
2023/08/11 01:44:03;;;;;;;10.02;7.47;;;;;;;15.23;94.57;101868.50;5028424;28;20389;-75
2023/08/11 01:46:30;;;;;;;8.25;7.30;;;;;;;15.21;94.42;101867.75;5012259;28;20322;-76
2023/08/11 01:48:56;;;;;;;10.48;7.82;;;;;;;15.21;94.46;101877.84;5009997;28;20030;-75
2023/08/11 01:51:23;;;;;;;9.82;7.18;;;;;;;15.20;93.91;101868.75;5010111;28;20529;-75
2023/08/11 01:53:50;;;;;;;12.52;7.82;;;;;;;15.17;94.48;101866.22;5009641;28;20125;-75
2023/08/11 01:56:16;;;;;;;10.63;8.48;;;;;;;15.16;95.33;101867.22;5028271;28;20401;-75
2023/08/11 01:58:42;;;;;;;10.02;8.07;;;;;;;15.13;95.65;101863.84;5028050;28;20060;-76
2023/08/11 02:01:07;;;;;;;10.90;8.02;;;;;;;15.11;95.36;101858.47;5027094;28;20033;-75
2023/08/11 02:03:33;;;;;;;8.88;7.65;;;;;;;15.11;94.90;101861.22;5030495;28;20116;-76
2023/08/11 02:05:59;;;;;;;11.32;8.68;;;;;;;15.07;94.99;101847.88;5028879;28;20520;-76
2023/08/11 02:08:25;;;;;;;12.50;7.75;;;;;;;15.05;95.34;101847.97;5028100;28;20052;-75
2023/08/11 02:10:52;;;;;;;10.50;8.30;;;;;;;15.04;95.25;101844.34;5027443;28;20048;-76
2023/08/11 02:13:19;;;;;;;10.32;8.10;;;;;;;15.02;95.25;101853.69;5028523;28;20180;-76
2023/08/11 02:15:44;;;;;;;11.40;8.13;;;;;;;15.00;94.15;101862.00;5017636;28;20397;-75
2023/08/11 02:18:10;;;;;;;10.40;8.20;;;;;;;15.00;95.46;101851.03;5010621;28;20055;-75
2023/08/11 02:20:35;;;;;;;12.27;8.35;;;;;;;14.97;95.39;101847.69;5017618;28;20030;-75
2023/08/11 02:23:01;;;;;;;10.02;8.40;;;;;;;14.95;95.70;101838.69;5029833;28;20405;-75
2023/08/11 02:25:26;;;;;;;13.48;8.30;;;;;;;14.93;95.57;101844.28;5023903;28;20096;-75
2023/08/11 02:27:52;;;;;;;12.95;8.18;;;;;;;14.93;94.71;101840.69;5008063;28;20046;-75
2023/08/11 02:30:18;;;;;;;14.10;8.18;;;;;;;14.92;95.09;101847.13;5012882;28;20026;-76
2023/08/11 02:32:45;;;;;;;10.15;8.30;;;;;;;14.89;95.66;101842.78;4992854;28;20041;-75
2023/08/11 02:35:11;;;;;;;12.38;8.23;;;;;;;14.87;95.01;101842.00;5023123;28;20047;-75
2023/08/11 02:37:36;;;;;;;10.75;8.00;;;;;;;14.86;94.79;101848.47;5030184;28;20033;-75
2023/08/11 02:40:07;;;;;;;10.52;9.27;;;;;;;14.85;95.34;101852.19;5028060;28;20073;-75
2023/08/11 02:42:33;;;;;;;12.32;9.25;;;;;;;14.85;95.62;101857.69;5026552;28;20056;-74
2023/08/11 02:44:58;;;;;;;13.88;9.38;;;;;;;14.82;95.75;101854.28;5009705;28;20410;-75
2023/08/11 02:47:23;;;;;;;11.10;9.90;;;;;;;14.83;95.61;101850.56;5010074;28;20046;-76
2023/08/11 02:49:49;;;;;;;14.27;10.15;;;;;;;14.82;95.51;101851.53;5008611;28;20448;-75
2023/08/11 02:52:15;;;;;;;15.07;9.98;;;;;;;14.79;95.10;101850.81;5009790;28;20100;-74
2023/08/11 02:54:40;;;;;;;13.90;10.13;;;;;;;14.79;96.63;101858.16;5009333;28;20077;-73
2023/08/11 02:57:05;;;;;;;19.80;12.40;;;;;;;14.72;98.48;101851.34;5008764;28;20042;-75
2023/08/11 02:59:31;;;;;;;13.73;10.15;;;;;;;14.71;96.59;101861.44;5017159;28;20052;-75
2023/08/11 03:01:56;;;;;;;13.57;10.77;;;;;;;14.70;97.35;101850.59;5009524;28;20473;-75
2023/08/11 03:04:22;;;;;;;13.95;10.77;;;;;;;14.69;97.10;101855.22;5027215;28;20037;-74
2023/08/11 03:06:48;;;;;;;17.65;10.45;;;;;;;14.67;96.79;101850.81;5010760;28;20033;-74
2023/08/11 03:09:13;;;;;;;15.73;11.13;;;;;;;14.68;96.58;101852.56;4998861;28;20099;-75
2023/08/11 03:11:40;;;;;;;17.25;11.23;;;;;;;14.65;96.05;101833.63;5028839;28;20037;-74
2023/08/11 03:14:05;;;;;;;19.75;11.32;;;;;;;14.64;96.47;101840.09;5027966;28;20072;-75
2023/08/11 03:16:32;;;;;;;13.07;10.38;;;;;;;14.60;95.90;101833.97;5026331;28;20464;-76
2023/08/11 03:18:57;;;;;;;12.15;10.40;;;;;;;14.59;96.18;101834.94;5027930;28;20531;-75
2023/08/11 03:21:23;;;;;;;16.30;12.20;;;;;;;14.58;96.50;101835.06;5026400;28;20069;-76
2023/08/11 03:23:49;;;;;;;16.35;10.55;;;;;;;14.56;96.20;101837.94;5027327;28;20103;-75
2023/08/11 03:26:14;;;;;;;17.10;10.60;;;;;;;14.53;96.35;101835.41;5026944;28;20068;-75
2023/08/11 03:28:41;;;;;;;12.10;10.60;;;;;;;14.50;96.42;101839.25;5025855;28;20160;-76
2023/08/11 03:31:07;;;;;;;15.63;11.32;;;;;;;14.52;96.91;101841.88;5026416;28;20489;-76
2023/08/11 03:33:38;;;;;;;13.80;10.23;;;;;;;14.50;96.43;101843.84;5028134;28;20089;-75
2023/08/11 03:36:07;;;;;;;15.32;10.43;;;;;;;14.47;96.69;101839.44;5026528;28;20029;-75
2023/08/11 03:38:33;;;;;;;16.17;11.18;;;;;;;14.42;97.13;101836.16;5027249;28;20314;-75
2023/08/11 03:40:58;;;;;;;12.45;10.30;;;;;;;14.40;96.92;101832.66;5026644;28;20603;-75
2023/08/11 03:43:23;;;;;;;11.88;9.07;;;;;;;14.39;96.86;101839.13;5024905;28;20033;-74
2023/08/11 03:45:50;;;;;;;14.85;10.68;;;;;;;14.36;98.07;101836.63;4993620;28;20040;-75
2023/08/11 03:48:15;;;;;;;15.68;11.10;;;;;;;14.33;98.00;101830.47;5007598;28;20279;-75
2023/08/11 03:50:41;;;;;;;14.27;10.98;;;;;;;14.30;99.18;101828.81;5008733;28;20040;-75
2023/08/11 03:53:07;;;;;;;11.55;10.10;;;;;;;14.28;97.98;101823.47;5009322;28;20068;-75
2023/08/11 03:55:32;;;;;;;15.38;9.85;;;;;;;14.27;97.80;101832.69;5007192;28;20401;-75
2023/08/11 03:57:58;;;;;;;12.13;9.63;;;;;;;14.25;98.11;101836.50;5024157;28;20063;-75
2023/08/11 04:00:26;;;;;;;14.60;11.18;;;;;;;14.25;98.45;101831.03;5023541;28;20044;-75
2023/08/11 04:03:03;;;;;;;14.00;10.18;;;;;;;14.23;98.30;101833.00;5026828;28;20346;-75
2023/08/11 04:05:28;;;;;;;13.35;9.90;;;;;;;14.21;97.37;101824.03;5026585;28;20754;-75
2023/08/11 04:07:54;;;;;;;13.80;10.63;;;;;;;14.16;97.38;101826.22;5025152;28;20087;-74
2023/08/11 04:10:20;;;;;;;14.25;10.82;;;;;;;14.17;97.41;101830.69;5009728;28;20038;-74
2023/08/11 04:12:45;;;;;;;14.48;10.90;;;;;;;14.16;97.66;101828.94;5007644;28;20045;-75
2023/08/11 04:15:10;;;;;;;14.80;10.52;;;;;;;14.15;97.78;101832.69;5010598;28;20482;-75
2023/08/11 04:17:36;;;;;;;15.48;11.40;;;;;;;14.14;97.80;101829.06;5028464;28;20529;-75
2023/08/11 04:20:12;;;;;;;15.98;12.65;;;;;;;14.09;98.25;101830.41;5025363;28;20040;-74
2023/08/11 04:22:38;;;;;;;15.88;11.63;;;;;;;14.10;97.97;101833.00;5025977;28;20040;-75
2023/08/11 04:25:05;;;;;;;19.67;13.07;;;;;;;14.09;97.89;101830.41;5026587;28;20033;-75
2023/08/11 04:27:31;;;;;;;17.42;12.55;;;;;;;14.06;98.37;101831.47;5020572;28;20034;-75
2023/08/11 04:29:57;;;;;;;15.05;11.68;;;;;;;14.07;97.68;101827.75;5008816;28;20543;-75
2023/08/11 04:32:23;;;;;;;15.45;11.15;;;;;;;14.07;98.29;101833.22;5006687;28;20394;-75
2023/08/11 04:34:49;;;;;;;16.88;11.68;;;;;;;14.07;98.18;101827.75;5006817;28;20066;-75
2023/08/11 04:37:18;;;;;;;18.25;12.07;;;;;;;14.05;98.75;101829.72;5005945;28;20543;-75
2023/08/11 04:39:44;;;;;;;15.25;11.15;;;;;;;14.05;98.35;101827.00;5026066;28;20026;-75
2023/08/11 04:42:09;;;;;;;15.18;11.43;;;;;;;14.08;98.08;101834.97;5024820;28;20029;-74
2023/08/11 04:44:35;;;;;;;14.45;10.88;;;;;;;14.10;97.63;101830.28;5022485;28;20032;-75
2023/08/11 04:47:01;;;;;;;12.27;10.98;;;;;;;14.10;97.70;101823.94;4999774;28;20124;-75
2023/08/11 04:49:26;;;;;;;14.70;10.68;;;;;;;14.11;98.21;101823.81;5027060;28;20102;-75
2023/08/11 04:51:52;;;;;;;15.30;10.38;;;;;;;14.12;97.80;101821.94;5025621;28;20095;-75
2023/08/11 04:54:18;;;;;;;19.17;11.43;;;;;;;14.14;98.25;101822.72;5021986;28;20034;-75
2023/08/11 04:56:43;;;;;;;16.55;11.15;;;;;;;14.16;97.78;101815.28;5006209;28;20483;-74
2023/08/11 04:59:09;;;;;;;16.80;10.27;;;;;;;14.17;98.07;101809.69;5013033;28;20045;-75
2023/08/11 05:01:35;;;;;;;15.02;10.57;;;;;;;14.17;98.93;101809.69;5023752;28;20034;-75
2023/08/11 05:04:01;;;;;;;12.82;10.10;;;;;;;14.19;98.33;101802.25;5017454;28;20091;-74
2023/08/11 05:06:26;;;;;;;15.43;11.13;;;;;;;14.20;98.49;101798.50;5025740;28;20485;-75
2023/08/11 05:08:51;;;;;;;20.05;11.40;;;;;;;14.23;98.74;101805.66;5025746;28;20363;-75
2023/08/11 05:11:17;;;;;;;16.90;11.23;;;;;;;14.24;98.75;101799.19;5026757;28;20041;-75
2023/08/11 05:13:43;;;;;;;15.57;11.65;;;;;;;14.26;98.71;101800.78;5040577;28;20112;-75
2023/08/11 05:16:09;;;;;;;16.20;11.68;;;;;;;14.28;98.44;101801.56;5019947;28;20504;-74
2023/08/11 05:18:35;;;;;;;13.98;10.85;;;;;;;14.31;99.10;101805.94;5030376;28;20137;-75
2023/08/11 05:21:01;;;;;;;14.20;10.38;;;;;;;14.32;99.01;101802.25;5028820;28;20461;-74
2023/08/11 05:23:26;;;;;;;17.15;12.40;;;;;;;14.36;99.20;101805.59;5031086;28;20025;-75
2023/08/11 05:25:53;;;;;;;15.30;10.88;;;;;;;14.36;98.86;101806.50;5030374;28;20071;-75
2023/08/11 05:28:18;;;;;;;15.05;12.27;;;;;;;14.39;98.95;101800.78;5029212;28;20048;-75
2023/08/11 05:30:45;;;;;;;16.80;10.85;;;;;;;14.43;98.31;101801.44;5026264;28;20034;-73
2023/08/11 05:33:10;;;;;;;18.85;12.00;;;;;;;14.48;99.73;101794.66;5029733;28;20519;-75
2023/08/11 05:35:36;;;;;;;18.60;13.27;;;;;;;14.52;100.00;101789.84;5029802;28;20068;-73
2023/08/11 05:38:02;;;;;;;14.38;11.05;;;;;;;14.57;99.71;101792.25;5021274;28;20034;-74
2023/08/11 05:40:29;;;;;;;14.80;11.80;;;;;;;14.62;99.25;101790.03;5010965;28;20046;-75
2023/08/11 05:42:54;;;;;;;20.58;12.70;;;;;;;14.67;99.94;101796.91;5010702;28;20073;-75
2023/08/11 05:45:20;;;;;;;16.70;11.15;;;;;;;14.74;99.62;101794.63;4999603;28;20515;-75
2023/08/11 05:47:45;;;;;;;22.77;14.88;;;;;;;14.78;100.00;101794.25;5031162;28;20493;-73
2023/08/11 05:50:10;;;;;;;23.02;13.82;;;;;;;14.84;100.00;101794.78;5030627;28;20021;-75
2023/08/11 05:52:36;;;;;;;19.90;12.80;;;;;;;14.88;100.00;101799.06;5031259;28;20033;-75
2023/08/11 05:55:01;;;;;;;21.85;12.65;;;;;;;14.92;99.88;101798.72;5028618;28;20026;-75
2023/08/11 05:57:26;;;;;;;22.00;13.63;;;;;;;14.97;99.82;101792.88;5008796;28;20391;-75
2023/08/11 05:59:52;;;;;;;19.05;12.73;;;;;;;15.01;100.00;101791.63;5012364;28;20056;-75
2023/08/11 06:02:17;;;;;;;22.55;15.52;;;;;;;15.08;100.00;101795.66;5010937;28;20046;-75
2023/08/11 06:04:44;;;;;;;20.58;13.57;;;;;;;15.12;100.00;101785.34;5018469;28;20061;-75
2023/08/11 06:07:10;;;;;;;22.52;15.35;;;;;;;15.18;100.00;101799.44;5030445;28;20111;-73
2023/08/11 06:09:35;;;;;;;26.15;17.77;;;;;;;15.26;100.00;101799.75;5010812;28;20030;-75
2023/08/11 06:12:01;;;;;;;22.77;16.88;;;;;;;15.32;100.00;101791.03;5030036;28;20550;-75
2023/08/11 06:14:27;;;;;;;22.15;15.52;;;;;;;15.38;100.00;101794.28;5028775;28;20041;-74
2023/08/11 06:16:52;;;;;;;27.63;17.77;;;;;;;15.47;100.00;101791.69;5013156;28;20136;-75
2023/08/11 06:19:17;;;;;;;23.23;15.70;;;;;;;15.51;100.00;101784.97;5010555;28;20038;-75
2023/08/11 06:21:45;;;;;;;25.55;17.25;;;;;;;15.60;100.00;101798.97;4993126;28;20029;-75
2023/08/11 06:24:10;;;;;;;29.92;17.20;;;;;;;15.67;100.00;101798.44;5010393;28;20026;-74
2023/08/11 06:26:36;;;;;;;28.40;19.60;;;;;;;15.74;100.00;101802.41;5008947;28;20037;-75
2023/08/11 06:29:03;;;;;;;25.85;17.83;;;;;;;15.81;100.00;101792.72;5013857;28;20074;-75
2023/08/11 06:31:30;;;;;;;24.75;16.75;;;;;;;15.90;100.00;101796.59;5012845;28;20046;-75
2023/08/11 06:33:55;;;;;;;27.73;17.50;;;;;;;15.95;100.00;101788.88;5008881;28;20100;-75
2023/08/11 06:36:21;;;;;;;25.13;15.73;;;;;;;16.02;100.00;101792.84;5008841;28;20560;-73
2023/08/11 06:38:46;;;;;;;22.85;15.60;;;;;;;16.14;100.00;101803.88;5024153;28;20033;-75
2023/08/11 06:41:11;;;;;;;21.60;14.65;;;;;;;16.20;100.00;101800.63;5007961;28;20104;-75
2023/08/11 06:43:38;;;;;;;28.42;16.52;;;;;;;16.29;100.00;101806.22;5009362;28;20041;-75
2023/08/11 06:46:04;;;;;;;23.45;15.40;;;;;;;16.38;100.00;101809.25;5010279;28;20038;-75
2023/08/11 06:48:29;;;;;;;23.27;14.68;;;;;;;16.45;100.00;101811.34;5008802;28;20381;-75
2023/08/11 06:50:56;;;;;;;22.65;14.75;;;;;;;16.54;100.00;101818.81;5024238;28;20025;-75
2023/08/11 06:53:22;;;;;;;23.80;15.23;;;;;;;16.65;100.00;101811.59;5028210;28;20065;-75
2023/08/11 06:55:47;;;;;;;23.10;14.35;;;;;;;16.71;100.00;101811.06;5027597;28;20069;-75
2023/08/11 06:58:12;;;;;;;20.48;13.90;;;;;;;16.78;100.00;101815.09;5026738;28;20049;-75
2023/08/11 07:00:38;;;;;;;18.60;12.40;;;;;;;16.87;100.00;101813.44;5019949;28;20056;-75
2023/08/11 07:03:03;;;;;;;19.38;12.43;;;;;;;16.98;100.00;101821.69;5009864;28;20041;-75
2023/08/11 07:05:29;;;;;;;21.83;12.48;;;;;;;17.06;100.00;101814.50;5009606;28;20037;-75
2023/08/11 07:07:54;;;;;;;15.73;9.75;;;;;;;17.15;97.71;101812.00;5015264;28;20045;-75
2023/08/11 07:10:19;;;;;;;16.20;10.65;;;;;;;17.25;97.70;101818.44;5027269;28;20036;-75
2023/08/11 07:12:45;;;;;;;20.80;10.18;;;;;;;17.35;96.91;101819.44;5028357;28;20052;-75
2023/08/11 07:15:10;;;;;;;19.35;8.95;;;;;;;17.45;96.90;101822.28;5037106;28;20476;-75
2023/08/11 07:17:36;;;;;;;16.65;9.43;;;;;;;17.52;97.76;101821.59;5008646;28;20089;-75
2023/08/11 07:20:01;;;;;;;15.25;8.38;;;;;;;17.62;97.17;101826.28;5008020;28;20056;-75
2023/08/11 07:22:26;;;;;;;15.93;9.30;;;;;;;17.70;95.83;101827.38;5009393;28;20419;-75
2023/08/11 07:24:52;;;;;;;15.13;9.20;;;;;;;17.77;95.88;101814.88;5009125;28;20034;-74
2023/08/11 07:27:17;;;;;;;13.55;9.25;;;;;;;17.86;96.31;101821.47;5008519;28;20460;-75
2023/08/11 07:29:43;;;;;;;13.20;9.30;;;;;;;17.94;96.34;101821.63;5008824;28;20589;-75
2023/08/11 07:32:09;;;;;;;14.95;11.55;;;;;;;18.06;94.30;101823.31;5010095;28;20468;-75
2023/08/11 07:34:36;;;;;;;17.20;11.65;;;;;;;18.16;94.20;101828.88;5009524;28;20037;-75
2023/08/11 07:37:03;;;;;;;14.40;9.25;;;;;;;18.24;94.06;101828.22;5009011;28;20038;-74
2023/08/11 07:39:28;;;;;;;12.80;7.78;;;;;;;18.33;91.97;101828.25;5007817;28;20128;-75
2023/08/11 07:41:54;;;;;;;10.95;8.00;;;;;;;18.42;90.95;101825.66;5006199;28;20040;-73
2023/08/11 07:44:19;;;;;;;11.68;8.35;;;;;;;18.52;92.39;101824.72;5008315;28;20029;-75
2023/08/11 07:46:45;;;;;;;10.75;7.40;;;;;;;18.59;92.30;101825.88;5025361;28;20591;-76
2023/08/11 07:49:10;;;;;;;13.10;6.95;;;;;;;18.67;91.87;101822.44;5027091;28;20490;-74
2023/08/11 07:51:36;;;;;;;12.75;6.82;;;;;;;18.78;91.12;101832.50;5029160;28;20110;-75
2023/08/11 07:54:01;;;;;;;9.35;5.20;;;;;;;18.88;89.86;101838.06;5023684;28;20045;-75
2023/08/11 07:56:27;;;;;;;9.20;5.18;;;;;;;18.97;89.58;101835.31;5008087;28;20037;-75
2023/08/11 07:58:53;;;;;;;8.43;5.22;;;;;;;19.11;89.63;101836.78;5008418;28;20057;-76
2023/08/11 08:01:18;;;;;;;10.77;5.50;;;;;;;19.46;89.09;101828.00;5007639;28;20057;-75
2023/08/11 08:03:45;;;;;;;8.95;5.60;;;;;;;19.93;88.36;101830.03;5008721;28;20619;-75
2023/08/11 08:06:11;;;;;;;8.85;5.10;;;;;;;20.61;83.63;101826.06;5008845;28;20061;-75
2023/08/11 08:08:36;;;;;;;8.40;4.88;;;;;;;21.24;81.61;101832.66;5009954;28;20076;-75
2023/08/11 08:11:02;;;;;;;7.70;4.60;;;;;;;21.63;76.78;101833.25;5027272;28;20502;-74
2023/08/11 08:13:28;;;;;;;5.72;4.40;;;;;;;22.06;76.66;101829.63;5010025;28;20532;-75
2023/08/11 08:15:54;;;;;;;8.20;4.75;;;;;;;22.39;72.57;101829.88;5023391;28;20033;-75
2023/08/11 08:18:20;;;;;;;9.95;4.50;;;;;;;22.90;73.49;101828.94;5027593;28;20477;-75
2023/08/11 08:20:46;;;;;;;8.10;4.05;;;;;;;23.54;72.54;101823.69;5025782;28;20405;-76
2023/08/11 08:23:12;;;;;;;7.78;4.65;;;;;;;24.02;70.60;101829.47;5027765;28;20546;-76
2023/08/11 08:25:37;;;;;;;7.75;4.38;;;;;;;24.46;68.70;101817.94;5026951;28;20029;-76
2023/08/11 08:28:03;;;;;;;6.88;3.80;;;;;;;24.96;69.04;101817.56;5025989;28;20528;-76
2023/08/11 08:30:29;;;;;;;7.65;3.83;;;;;;;25.36;66.16;101826.75;5024824;28;20521;-75
2023/08/11 08:32:54;;;;;;;6.18;3.85;;;;;;;25.70;64.98;101823.53;5028194;28;20094;-75
2023/08/11 08:35:19;;;;;;;5.57;3.90;;;;;;;26.07;61.32;101822.72;5043145;28;20451;-76
2023/08/11 08:37:44;;;;;;;8.45;3.97;;;;;;;26.39;61.97;101827.09;5028178;28;20532;-75
2023/08/11 08:40:10;;;;;;;4.82;3.65;;;;;;;26.61;58.86;101827.22;5020798;28;20030;-75
2023/08/11 08:42:37;;;;;;;7.15;3.97;;;;;;;26.87;59.96;101826.72;5008198;28;20041;-75
2023/08/11 08:45:03;;;;;;;5.22;3.65;;;;;;;27.14;57.69;101828.81;5009605;28;20476;-76
2023/08/11 08:47:30;;;;;;;6.65;4.38;;;;;;;27.30;58.32;101827.72;5007107;28;20042;-76
2023/08/11 08:49:57;;;;;;;8.30;4.00;;;;;;;27.63;56.93;101832.78;5007880;28;20080;-78
2023/08/11 08:52:23;;;;;;;5.55;3.95;;;;;;;27.99;56.80;101820.69;5006227;28;20017;-76
2023/08/11 08:54:49;;;;;;;7.95;3.72;;;;;;;28.10;54.28;101823.78;5007577;28;20532;-76
2023/08/11 08:57:15;;;;;;;8.73;3.95;;;;;;;28.35;56.31;101820.53;5007095;28;20056;-76
2023/08/11 08:59:40;;;;;;;6.63;3.60;;;;;;;28.55;54.63;101821.56;5007616;28;20065;-75
2023/08/11 09:02:06;;;;;;;7.72;3.80;;;;;;;28.85;52.84;101816.53;5008810;28;20042;-76
2023/08/11 09:04:32;;;;;;;7.03;3.47;;;;;;;29.00;52.21;101816.41;5007991;28;20553;-76
2023/08/11 09:06:58;;;;;;;5.93;3.50;;;;;;;29.14;53.57;101815.38;5015279;28;20117;-76
2023/08/11 09:09:24;;;;;;;6.35;3.70;;;;;;;29.09;50.02;101820.75;5036092;28;20539;-76
2023/08/11 09:11:50;;;;;;;6.00;3.55;;;;;;;29.24;51.26;101817.81;5025354;28;20040;-76
2023/08/11 09:14:19;;;;;;;9.57;3.92;;;;;;;29.33;53.10;101812.84;5005828;28;20034;-76
2023/08/11 09:16:45;;;;;;;4.90;3.67;;;;;;;29.61;52.38;101823.94;5007181;28;20478;-77
2023/08/11 09:19:12;;;;;;;8.60;3.70;;;;;;;29.62;51.35;101812.53;5006728;28;20037;-76
2023/08/11 09:21:40;;;;;;;6.93;3.67;;;;;;;29.46;53.14;101822.16;5009282;28;20156;-76
2023/08/11 09:24:12;;;;;;;5.45;3.50;;;;;;;29.59;51.54;101817.69;5009297;28;20052;-76
2023/08/11 09:26:37;;;;;;;8.73;3.50;;;;;;;29.76;48.66;101812.56;5008720;28;20034;-76
2023/08/11 09:29:04;;;;;;;5.75;3.35;;;;;;;29.92;49.80;101815.78;5007315;28;20034;-74
2023/08/11 09:31:29;;;;;;;5.63;3.08;;;;;;;30.20;50.87;101809.97;5007678;28;20452;-76
2023/08/11 09:33:56;;;;;;;4.13;3.00;;;;;;;30.37;51.58;101809.53;5008285;28;20038;-76
2023/08/11 09:36:21;;;;;;;3.60;2.83;;;;;;;30.43;47.51;101814.25;5006113;28;20136;-75
2023/08/11 09:38:48;;;;;;;4.95;2.88;;;;;;;30.56;50.03;101810.56;5020003;28;20128;-77
2023/08/11 09:41:14;;;;;;;4.88;3.20;;;;;;;30.29;46.92;101818.16;5026869;28;20048;-76
2023/08/11 09:43:49;;;;;;;7.38;3.25;;;;;;;30.07;50.99;101809.94;5026939;28;20041;-76
2023/08/11 09:46:15;;;;;;;5.60;3.40;;;;;;;30.00;50.93;101797.88;5031961;28;20037;-77
2023/08/11 09:48:41;;;;;;;4.75;3.50;;;;;;;29.87;48.19;101809.09;5027361;28;20142;-77
2023/08/11 09:51:10;;;;;;;5.20;3.50;;;;;;;29.86;52.12;101812.97;5027678;28;20524;-74
2023/08/11 09:53:40;;;;;;;5.75;3.30;;;;;;;29.77;51.19;101812.31;5008353;28;20486;-76
2023/08/11 09:56:06;;;;;;;4.00;2.92;;;;;;;29.73;49.65;101805.41;5006607;28;20045;-76
2023/08/11 09:58:35;;;;;;;6.03;3.20;;;;;;;30.08;49.34;101808.88;5005751;28;20062;-76
2023/08/11 10:01:01;;;;;;;5.05;2.85;;;;;;;30.39;49.26;101810.16;5016807;28;20576;-74
2023/08/11 10:03:32;;;;;;;4.90;2.92;;;;;;;30.43;45.37;101811.44;5010309;28;20048;-74
2023/08/11 10:06:01;;;;;;;7.22;3.10;;;;;;;30.44;48.20;101808.41;5010192;28;20064;-74
2023/08/11 10:08:29;;;;;;;3.55;2.50;;;;;;;30.69;46.89;101810.53;5010089;28;20026;-74
2023/08/11 10:10:54;;;;;;;5.00;2.90;;;;;;;30.99;49.75;101819.28;5027774;28;20124;-74
2023/08/11 10:13:23;;;;;;;5.63;2.53;;;;;;;31.29;48.32;101816.81;5025279;28;20125;-74
2023/08/11 10:15:50;;;;;;;6.15;2.35;;;;;;;31.12;44.40;101813.63;5016814;28;20347;-73
2023/08/11 10:18:16;;;;;;;5.68;2.47;;;;;;;31.05;45.26;101815.59;5030431;28;20061;-74
2023/08/11 10:20:42;;;;;;;3.60;2.50;;;;;;;31.06;46.54;101810.81;5022231;28;20501;-74
2023/08/11 10:23:09;;;;;;;4.97;2.60;;;;;;;31.35;46.52;101803.78;5011091;28;20041;-74
2023/08/11 10:25:35;;;;;;;4.13;2.60;;;;;;;31.64;45.15;101807.94;5009580;28;20034;-74
2023/08/11 10:28:02;;;;;;;2.92;2.63;;;;;;;31.72;47.32;101814.13;5024795;28;20055;-74
2023/08/11 10:30:28;;;;;;;3.88;2.42;;;;;;;31.95;46.42;101801.44;5025902;28;20087;-74
2023/08/11 10:33:09;;;;;;;5.55;2.60;;;;;;;32.13;48.34;101806.22;5017359;28;20045;-75
2023/08/11 10:35:49;;;;;;;6.55;2.53;;;;;;;32.11;47.10;101800.84;5011140;28;20040;-74
2023/08/11 10:38:29;;;;;;;4.15;2.40;;;;;;;32.19;45.98;101799.69;5008981;28;20049;-74
2023/08/11 10:41:07;;;;;;;3.85;2.25;;;;;;;32.27;44.11;101799.41;5009473;28;20180;-74
2023/08/11 10:43:37;;;;;;;3.42;2.20;;;;;;;32.13;44.61;101804.31;5025115;28;20049;-74
2023/08/11 10:46:23;;;;;;;5.85;2.70;;;;;;;32.31;46.25;101806.28;5016842;28;20046;-73
2023/08/11 10:48:50;;;;;;;3.28;2.55;;;;;;;32.40;45.64;101802.09;5010223;28;20068;-74
2023/08/11 10:51:30;;;;;;;3.75;2.00;;;;;;;32.37;44.41;101801.72;5009962;28;20179;-74
2023/08/11 10:54:23;;;;;;;2.97;2.17;;;;;;;32.55;46.26;101804.56;5010108;28;20083;-74
2023/08/11 10:56:51;;;;;;;3.20;2.17;;;;;;;32.50;44.00;101810.91;5009777;28;20026;-74
2023/08/11 10:59:17;;;;;;;3.65;2.20;;;;;;;32.69;43.93;101806.13;5007634;28;20054;-75
2023/08/11 11:01:48;;;;;;;3.42;2.30;;;;;;;32.77;41.15;101802.09;5023861;28;20094;-75
2023/08/11 11:04:15;;;;;;;6.07;2.50;;;;;;;32.86;41.24;101794.19;5029547;28;20072;-73
2023/08/11 11:06:43;;;;;;;6.45;2.13;;;;;;;32.98;44.33;101798.84;5029700;28;20060;-74
2023/08/11 11:09:09;;;;;;;4.97;2.30;;;;;;;33.01;39.58;101798.34;5023701;28;20037;-75
2023/08/11 11:11:36;;;;;;;6.18;2.20;;;;;;;33.23;41.75;101790.25;5009784;28;20029;-74
2023/08/11 11:14:04;;;;;;;4.55;2.30;;;;;;;33.23;44.60;101803.50;5021017;28;20061;-74